createdAt,value
2018-03-27T00:01:23.246Z,20.93
2018-03-27T00:07:27.831Z,22.77
2018-03-27T00:13:32.316Z,23.67
2018-03-27T00:19:37.759Z,22.77
2018-03-27T00:25:42.347Z,22.97
2018-03-27T00:32:04.674Z,23.60
2018-03-27T00:38:32.816Z,25.83
2018-03-27T00:44:43.254Z,21.53
2018-03-27T00:50:47.619Z,20.80
2018-03-27T00:56:52.344Z,25.47
2018-03-27T01:02:57.042Z,21.50
2018-03-27T01:09:01.612Z,23.57
2018-03-27T01:15:06.144Z,21.70
2018-03-27T01:21:10.706Z,22.93
2018-03-27T01:27:15.477Z,23.97
2018-03-27T01:33:20.171Z,21.27
2018-03-27T01:39:24.899Z,20.57
2018-03-27T01:45:29.652Z,20.63
2018-03-27T01:51:34.231Z,18.90
2018-03-27T01:57:38.736Z,20.80
2018-03-27T02:03:43.236Z,19.20
2018-03-27T02:09:48.211Z,19.87
2018-03-27T02:15:58.513Z,21.70
2018-03-27T02:22:03.100Z,21.90
2018-03-27T02:28:07.698Z,22.00
2018-03-27T02:34:12.159Z,21.07
2018-03-27T02:40:16.771Z,22.60
2018-03-27T02:46:21.477Z,21.47
2018-03-27T02:52:26.019Z,21.63
2018-03-27T02:58:30.534Z,22.70
2018-03-27T03:04:35.860Z,23.17
2018-03-27T03:10:40.540Z,23.30
2018-03-27T03:16:45.983Z,22.80
2018-03-27T03:22:50.944Z,24.40
2018-03-27T03:28:55.437Z,24.57
2018-03-27T03:34:59.917Z,26.53
2018-03-27T03:41:04.415Z,25.27
2018-03-27T03:47:08.976Z,25.37
2018-03-27T03:53:13.516Z,25.07
2018-03-27T03:59:18.642Z,25.70
2018-03-27T04:05:23.327Z,25.53
2018-03-27T04:11:28.575Z,23.70
2018-03-27T04:17:33.054Z,24.70
2018-03-27T04:23:38.566Z,23.17
2018-03-27T04:29:43.343Z,23.97
2018-03-27T04:35:49.582Z,25.43
2018-03-27T04:41:54.076Z,24.60
2018-03-27T04:47:58.572Z,23.20
2018-03-27T04:54:03.219Z,24.87
2018-03-27T05:00:07.968Z,21.53
2018-03-27T05:06:12.654Z,24.33
2018-03-27T05:12:17.645Z,24.53
2018-03-27T05:18:22.602Z,23.90
2018-03-27T05:24:27.154Z,23.60
2018-03-27T05:30:31.778Z,21.90
2018-03-27T05:36:37.218Z,23.30
2018-03-27T05:42:41.872Z,21.67
2018-03-27T05:48:46.703Z,23.87
2018-03-27T05:54:52.487Z,21.87
2018-03-27T06:00:57.841Z,22.70
2018-03-27T06:07:02.304Z,23.03
2018-03-27T06:13:06.950Z,23.80
2018-03-27T06:19:11.610Z,22.50
2018-03-27T06:25:17.379Z,23.67
2018-03-27T06:31:22.888Z,25.47
2018-03-27T06:37:27.413Z,20.70
2018-03-27T06:43:32.678Z,23.57
2018-03-27T06:49:37.223Z,23.67
2018-03-27T06:55:41.702Z,22.80
2018-03-27T07:01:47.450Z,23.37
2018-03-27T07:07:52.524Z,25.23
2018-03-27T07:13:57.056Z,25.03
2018-03-27T07:20:01.630Z,25.13
2018-03-27T07:26:06.209Z,26.80
2018-03-27T07:32:10.720Z,29.47
2018-03-27T07:38:15.282Z,28.20
2018-03-27T07:44:20.459Z,26.20
2018-03-27T07:50:24.972Z,27.00
2018-03-27T07:56:29.474Z,27.90
2018-03-27T08:02:33.970Z,26.70
2018-03-27T08:08:39.195Z,26.87
2018-03-27T08:14:43.711Z,27.00
2018-03-27T08:20:48.503Z,27.20
2018-03-27T08:26:53.051Z,27.50
2018-03-27T08:32:57.876Z,24.17
2018-03-27T08:39:02.426Z,26.20
2018-03-27T08:45:06.990Z,23.70
2018-03-27T08:51:11.499Z,24.23
2018-03-27T08:57:16.239Z,26.10
2018-03-27T09:03:21.748Z,24.87
2018-03-27T09:09:26.336Z,26.17
2018-03-27T09:15:30.901Z,25.23
2018-03-27T09:21:35.453Z,26.80
2018-03-27T09:27:39.970Z,26.83
2018-03-27T09:33:44.530Z,25.67
2018-03-27T09:39:49.365Z,26.00
2018-03-27T09:45:54.870Z,26.90
2018-03-27T09:51:59.567Z,25.37
2018-03-27T09:58:04.347Z,29.97
2018-03-27T10:04:08.834Z,28.27
2018-03-27T10:10:13.351Z,29.13
2018-03-27T10:16:19.693Z,28.10
2018-03-27T10:22:24.516Z,29.90
2018-03-27T10:28:29.066Z,29.23
2018-03-27T10:34:33.592Z,28.93
2018-03-27T10:40:38.258Z,28.30
2018-03-27T10:46:42.927Z,27.73
2018-03-27T10:52:48.878Z,28.20
2018-03-27T10:58:53.443Z,29.20
2018-03-27T11:04:58.739Z,30.37
2018-03-27T11:11:04.018Z,25.57
2018-03-27T11:17:08.568Z,23.00
2018-03-27T11:23:13.091Z,24.07
2018-03-27T11:29:18.820Z,24.37
2018-03-27T11:35:24.132Z,22.30
2018-03-27T11:41:28.656Z,17.70
2018-03-27T11:47:34.023Z,15.47
2018-03-27T11:53:38.523Z,13.27
2018-03-27T11:59:43.075Z,17.13
2018-03-27T12:05:47.996Z,18.00
2018-03-27T12:11:52.501Z,19.53
2018-03-27T12:17:57.872Z,18.10
2018-03-27T12:24:02.467Z,19.83
2018-03-27T12:30:07.744Z,17.10
2018-03-27T12:36:12.239Z,21.70
2018-03-27T12:42:16.982Z,21.77
2018-03-27T12:48:22.357Z,24.80
2018-03-27T12:54:26.901Z,21.00
2018-03-27T13:00:32.179Z,22.30
2018-03-27T13:06:37.696Z,22.40
2018-03-27T13:12:42.262Z,21.87
2018-03-27T13:18:48.426Z,21.57
2018-03-27T13:24:53.032Z,22.07
2018-03-27T13:30:57.567Z,21.30
2018-03-27T13:37:02.815Z,19.87
2018-03-27T13:43:07.307Z,19.83
2018-03-27T13:49:11.944Z,19.90
2018-03-27T13:55:16.545Z,18.90
2018-03-27T14:01:21.399Z,19.20
2018-03-27T14:07:26.251Z,20.43
2018-03-27T14:13:30.752Z,19.57
2018-03-27T14:19:35.379Z,19.73
2018-03-27T14:25:40.040Z,25.37
2018-03-27T14:31:44.528Z,22.00
2018-03-27T14:37:49.199Z,25.77
2018-03-27T14:43:53.723Z,19.70
2018-03-27T14:49:58.239Z,18.50
2018-03-27T14:56:02.798Z,18.83
2018-03-27T15:02:07.337Z,19.57
2018-03-27T15:08:11.918Z,19.87
2018-03-27T15:14:16.796Z,18.60
2018-03-27T15:20:21.546Z,18.53
2018-03-27T15:26:27.058Z,17.50
2018-03-27T15:32:31.697Z,17.63
2018-03-27T15:38:36.415Z,18.40
2018-03-27T15:44:40.921Z,19.47
2018-03-27T15:50:45.483Z,18.43
2018-03-27T15:56:50.834Z,17.20
2018-03-27T16:02:55.507Z,16.43
2018-03-27T16:09:00.015Z,17.80
2018-03-27T16:15:05.306Z,16.27
2018-03-27T16:21:09.840Z,15.93
2018-03-27T16:27:14.408Z,15.53
2018-03-27T16:33:19.125Z,15.90
2018-03-27T16:39:23.597Z,15.20
2018-03-27T16:45:28.104Z,15.37
2018-03-27T16:51:33.458Z,14.73
2018-03-27T16:57:37.965Z,14.43
2018-03-27T17:03:42.546Z,16.17
2018-03-27T17:09:47.152Z,16.73
2018-03-27T17:15:51.752Z,17.63
2018-03-27T17:21:56.235Z,16.43
2018-03-27T17:28:00.704Z,15.73
2018-03-27T17:34:05.336Z,17.07
2018-03-27T17:40:09.827Z,17.93
2018-03-27T17:46:15.094Z,16.87
2018-03-27T17:52:20.376Z,17.33
2018-03-27T17:58:24.869Z,17.80
2018-03-27T18:04:29.866Z,18.50
2018-03-27T18:10:34.383Z,19.50
2018-03-27T18:16:38.853Z,19.43
2018-03-27T18:22:44.074Z,17.80
2018-03-27T18:28:48.634Z,18.13
2018-03-27T18:34:53.294Z,20.90
2018-03-27T18:40:58.545Z,19.50
2018-03-27T18:47:03.030Z,22.10
2018-03-27T18:53:07.567Z,21.90
2018-03-27T18:59:12.061Z,20.10
2018-03-27T19:05:16.656Z,22.97
2018-03-27T19:11:21.411Z,21.00
2018-03-27T19:17:26.024Z,23.00
2018-03-27T19:23:30.504Z,23.63
2018-03-27T19:29:34.971Z,25.10
2018-03-27T19:35:39.469Z,23.57
2018-03-27T19:41:43.952Z,26.33
2018-03-27T19:47:48.578Z,25.10
2018-03-27T19:53:53.091Z,25.50
2018-03-27T19:59:57.564Z,27.97
2018-03-27T20:06:02.020Z,27.93
2018-03-27T20:12:06.486Z,29.27
2018-03-27T20:18:10.950Z,29.87
2018-03-27T20:24:16.350Z,30.33
2018-03-27T20:30:21.615Z,28.77
2018-03-27T20:36:26.138Z,29.70
2018-03-27T20:42:30.659Z,29.53
2018-03-27T20:48:36.066Z,30.60
2018-03-27T20:54:40.553Z,28.80
2018-03-27T21:00:45.052Z,30.13
2018-03-27T21:06:50.384Z,29.57
2018-03-27T21:12:55.753Z,32.27
2018-03-27T21:19:01.108Z,30.37
2018-03-27T21:25:05.594Z,31.70
2018-03-27T21:31:10.142Z,35.33
2018-03-27T21:37:14.730Z,31.93
2018-03-27T21:43:19.811Z,30.50
2018-03-27T21:49:24.322Z,28.67
2018-03-27T21:55:28.822Z,30.20
2018-03-27T22:01:34.124Z,29.87
2018-03-27T22:07:39.346Z,30.80
2018-03-27T22:13:43.965Z,32.87
2018-03-27T22:19:48.930Z,30.47
2018-03-27T22:25:53.571Z,34.50
2018-03-27T22:31:58.172Z,31.43
2018-03-27T22:38:04.168Z,32.93
2018-03-27T22:44:09.186Z,31.57
2018-03-27T22:50:13.739Z,33.27
2018-03-27T22:56:18.269Z,32.43
2018-03-27T23:02:22.730Z,33.47
2018-03-27T23:08:27.229Z,33.57
2018-03-27T23:14:31.702Z,34.70
2018-03-27T23:20:36.341Z,33.90
2018-03-27T23:26:41.017Z,33.30
2018-03-27T23:32:45.574Z,33.30
2018-03-27T23:38:51.231Z,34.20
2018-03-27T23:44:55.768Z,32.67
2018-03-27T23:51:00.347Z,34.53
2018-03-27T23:57:04.991Z,31.07
